Time;durP1;ratioP1;P1;durP2;ratioP2;P2;SDS_P1;SDS_P2;PMS_P1;PMS_P2;Temp;Humidity;BMP_temperature;BMP_pressure;BME280_temperature;BME280_humidity;BME280_pressure;Samples;Min_cycle;Max_cycle;Signal;HPM_P1;HPM_P2
2021/12/12 00:01:41;;;;;;;73.68;26.55;;;;;;;;;;2622707;52;21054;-79
2021/12/12 00:04:12;;;;;;;69.68;28.33;;;;;;;;;;2622111;52;21070;-79
2021/12/12 00:06:41;;;;;;;66.50;27.25;;;;;;;;;;2370276;56;21038;-78
2021/12/12 00:09:10;;;;;;;70.80;25.80;;;;;;;;;;2369944;56;21030;-78
2021/12/12 00:11:38;;;;;;;83.57;28.20;;;;;;;;;;2370296;56;21058;-79
2021/12/12 00:14:08;;;;;;;76.43;27.23;;;;;;;;;;2622399;52;21037;-78
2021/12/12 00:16:35;;;;;;;81.68;25.65;;;;;;;;;;2622583;52;21148;-78
2021/12/12 00:19:02;;;;;;;72.93;23.73;;;;;;;;;;2622213;52;21062;-78
2021/12/12 00:21:32;;;;;;;78.47;24.90;;;;;;;;;;2622454;53;21050;-78
2021/12/12 00:23:59;;;;;;;86.82;29.37;;;;;;;;;;2622460;52;21030;-78
2021/12/12 00:26:27;;;;;;;81.65;25.58;;;;;;;;;;2370103;56;21129;-78
2021/12/12 00:28:54;;;;;;;79.85;27.17;;;;;;;;;;2369776;56;21054;-78
2021/12/12 00:31:22;;;;;;;74.05;24.20;;;;;;;;;;2622384;53;21066;-79
2021/12/12 00:33:55;;;;;;;85.65;29.67;;;;;;;;;;2370144;56;21153;-78
2021/12/12 00:36:22;;;;;;;;;;;;;;;;;;2374113;56;21137;-79
2021/12/12 00:38:50;;;;;;;86.95;26.85;;;;;;;;;;2369864;56;20110;-78
2021/12/12 00:41:20;;;;;;;84.35;27.30;;;;;;;;;;2370080;56;21082;-79
2021/12/12 00:43:49;;;;;;;73.07;25.58;;;;;;;;;;2369990;56;21045;-78
2021/12/12 00:46:17;;;;;;;87.35;26.77;;;;;;;;;;2370263;56;21058;-78
2021/12/12 00:48:45;;;;;;;68.70;22.20;;;;;;;;;;2369677;56;21105;-77
2021/12/12 00:51:13;;;;;;;84.35;26.87;;;;;;;;;;2369933;56;21065;-78
2021/12/12 00:53:41;;;;;;;80.00;25.27;;;;;;;;;;2369814;56;21066;-78
2021/12/12 00:56:09;;;;;;;75.22;24.87;;;;;;;;;;2369639;56;21062;-78
2021/12/12 00:58:36;;;;;;;77.57;26.10;;;;;;;;;;2369779;56;21316;-78
2021/12/12 01:01:06;;;;;;;97.10;27.65;;;;;;;;;;2369870;56;21653;-78
2021/12/12 01:03:35;;;;;;;71.12;23.40;;;;;;;;;;2622593;52;21058;-78
2021/12/12 01:06:03;;;;;;;90.87;29.25;;;;;;;;;;2369737;56;21042;-79
2021/12/12 01:08:30;;;;;;;78.47;26.10;;;;;;;;;;2369688;56;21046;-78
2021/12/12 01:10:59;;;;;;;85.68;27.67;;;;;;;;;;2622341;52;21058;-78
2021/12/12 01:13:27;;;;;;;74.95;25.40;;;;;;;;;;2369635;56;21533;-77
2021/12/12 01:15:57;;;;;;;79.28;25.37;;;;;;;;;;2369680;56;21050;-78
2021/12/12 01:18:28;;;;;;;99.13;26.00;;;;;;;;;;2369457;56;21097;-78
2021/12/12 01:20:57;;;;;;;114.60;31.62;;;;;;;;;;2369112;56;21124;-79
2021/12/12 01:23:27;;;;;;;69.05;22.00;;;;;;;;;;2369313;56;21070;-78
2021/12/12 01:25:55;;;;;;;88.60;28.00;;;;;;;;;;2370365;56;21332;-78
2021/12/12 01:28:23;;;;;;;77.50;24.92;;;;;;;;;;2370181;56;21034;-79
2021/12/12 01:30:51;;;;;;;81.28;24.92;;;;;;;;;;2369774;56;21069;-78
2021/12/12 01:33:32;;;;;;;82.03;23.80;;;;;;;;;;2370214;56;21110;-78
2021/12/12 01:35:59;;;;;;;84.95;26.67;;;;;;;;;;2370292;56;21061;-79
2021/12/12 01:41:11;;;;;;;84.72;27.02;;;;;;;;;;2369901;56;20993;-79
2021/12/12 01:43:40;;;;;;;84.37;26.48;;;;;;;;;;2370074;56;21106;-78
2021/12/12 01:46:12;;;;;;;88.35;23.87;;;;;;;;;;2622569;52;21046;-79
2021/12/12 01:48:42;;;;;;;75.05;23.52;;;;;;;;;;2370460;56;21050;-79
2021/12/12 01:51:11;;;;;;;82.32;25.27;;;;;;;;;;2622378;53;21093;-79
2021/12/12 01:53:41;;;;;;;83.22;24.85;;;;;;;;;;2369472;56;21121;-77
2021/12/12 01:56:11;;;;;;;62.88;22.73;;;;;;;;;;2618966;52;21054;-79
2021/12/12 01:58:40;;;;;;;85.30;23.65;;;;;;;;;;2618731;52;21145;-78
2021/12/12 02:01:10;;;;;;;78.12;22.95;;;;;;;;;;2618933;53;21856;-79
2021/12/12 02:03:40;;;;;;;80.50;25.33;;;;;;;;;;2367031;56;21073;-78
2021/12/12 02:06:08;;;;;;;80.65;24.20;;;;;;;;;;2619180;53;21070;-78
2021/12/12 02:08:36;;;;;;;83.95;26.98;;;;;;;;;;2366582;56;21169;-79
2021/12/12 02:11:05;;;;;;;71.78;25.17;;;;;;;;;;2366886;56;21300;-78
2021/12/12 02:13:33;;;;;;;86.37;25.05;;;;;;;;;;2366924;56;21149;-78
2021/12/12 02:16:01;;;;;;;78.78;25.10;;;;;;;;;;2367429;56;21145;-79
2021/12/12 02:18:34;;;;;;;70.20;25.62;;;;;;;;;;2619169;52;21066;-79
2021/12/12 02:21:10;;;;;;;71.07;24.25;;;;;;;;;;2367019;56;21310;-79
2021/12/12 02:23:49;;;;;;;79.80;24.75;;;;;;;;;;2619118;52;21086;-79
2021/12/12 02:37:19;;;;;;;80.07;25.17;;;;;;;;;;2367063;56;21534;-79
2021/12/12 02:39:46;;;;;;;77.72;25.83;;;;;;;;;;2366922;56;21177;-79
2021/12/12 02:42:14;;;;;;;81.25;24.70;;;;;;;;;;2367083;56;21138;-79
2021/12/12 02:44:42;;;;;;;84.07;27.13;;;;;;;;;;2619161;52;21113;-79
2021/12/12 02:47:13;;;;;;;85.43;24.73;;;;;;;;;;2366924;56;21069;-79
2021/12/12 02:49:53;;;;;;;68.53;23.23;;;;;;;;;;2618543;52;21125;-79
2021/12/12 02:52:22;;;;;;;74.82;24.70;;;;;;;;;;2618972;52;21333;-79
2021/12/12 02:54:49;;;;;;;83.40;24.33;;;;;;;;;;2366796;56;21050;-78
2021/12/12 02:57:17;;;;;;;70.35;24.10;;;;;;;;;;2366891;56;21672;-78
2021/12/12 02:59:48;;;;;;;73.47;23.05;;;;;;;;;;2366706;56;21051;-79
2021/12/12 03:02:18;;;;;;;63.35;22.08;;;;;;;;;;2619215;52;21152;-79
2021/12/12 03:04:45;;;;;;;67.65;23.20;;;;;;;;;;2366710;56;21130;-79
2021/12/12 03:07:13;;;;;;;75.60;22.62;;;;;;;;;;2366305;56;21161;-78
2021/12/12 03:09:42;;;;;;;63.28;23.30;;;;;;;;;;2366563;56;21757;-78
2021/12/12 03:12:12;;;;;;;71.40;22.77;;;;;;;;;;2366944;56;21140;-78
2021/12/12 03:14:39;;;;;;;63.83;22.33;;;;;;;;;;2366678;56;21776;-78
2021/12/12 03:17:09;;;;;;;56.58;21.92;;;;;;;;;;2366920;56;21038;-79
2021/12/12 03:19:37;;;;;;;67.68;23.23;;;;;;;;;;2367256;56;21399;-78
2021/12/12 03:22:06;;;;;;;65.18;23.98;;;;;;;;;;2618734;52;21065;-78
2021/12/12 03:24:33;;;;;;;64.28;21.85;;;;;;;;;;2366409;56;21050;-78
2021/12/12 03:27:01;;;;;;;56.83;21.75;;;;;;;;;;2367608;56;21074;-78
2021/12/12 03:29:29;;;;;;;61.03;20.88;;;;;;;;;;2618589;52;21562;-78
2021/12/12 03:31:59;;;;;;;58.08;21.20;;;;;;;;;;2366477;56;21070;-78
2021/12/12 03:34:28;;;;;;;56.58;22.27;;;;;;;;;;2366554;56;21967;-78
2021/12/12 03:36:56;;;;;;;75.40;23.83;;;;;;;;;;2366545;56;21069;-78
2021/12/12 03:39:25;;;;;;;64.75;20.73;;;;;;;;;;2366161;56;21070;-78
2021/12/12 03:41:53;;;;;;;50.67;20.58;;;;;;;;;;2618068;52;21140;-78
2021/12/12 03:44:22;;;;;;;55.92;21.42;;;;;;;;;;2365711;56;21066;-78
2021/12/12 03:46:51;;;;;;;66.22;22.30;;;;;;;;;;2366928;56;21066;-79
2021/12/12 03:49:18;;;;;;;55.72;20.92;;;;;;;;;;2618661;52;21787;-78
2021/12/12 03:51:45;;;;;;;59.58;22.62;;;;;;;;;;2366941;56;21380;-78
2021/12/12 03:54:12;;;;;;;69.62;24.73;;;;;;;;;;2366867;56;21311;-79
2021/12/12 03:56:40;;;;;;;68.90;22.92;;;;;;;;;;2366224;56;21162;-78
2021/12/12 03:59:07;;;;;;;65.32;21.87;;;;;;;;;;2366525;56;21082;-79
2021/12/12 04:01:35;;;;;;;69.78;23.48;;;;;;;;;;2619035;53;21153;-79
2021/12/12 04:04:05;;;;;;;73.47;24.65;;;;;;;;;;2366796;56;21085;-79
2021/12/12 04:06:32;;;;;;;57.17;21.30;;;;;;;;;;2366936;56;21372;-78
2021/12/12 04:09:00;;;;;;;61.75;22.52;;;;;;;;;;2618918;52;21638;-78
2021/12/12 04:11:29;;;;;;;67.47;23.38;;;;;;;;;;2618758;53;21141;-79
2021/12/12 04:13:57;;;;;;;73.05;25.48;;;;;;;;;;2366934;56;21164;-79
2021/12/12 04:16:24;;;;;;;76.72;25.12;;;;;;;;;;2366801;56;21213;-79
2021/12/12 04:18:51;;;;;;;74.90;25.00;;;;;;;;;;2366664;56;21137;-79
2021/12/12 04:21:19;;;;;;;62.75;22.62;;;;;;;;;;2366813;56;21149;-79
2021/12/12 04:23:47;;;;;;;61.35;21.87;;;;;;;;;;2366950;56;21078;-79
2021/12/12 04:26:17;;;;;;;65.65;24.02;;;;;;;;;;2353496;54;21133;-79
2021/12/12 04:28:44;;;;;;;67.57;23.60;;;;;;;;;;2328493;57;21070;-77
2021/12/12 04:31:11;;;;;;;61.10;21.95;;;;;;;;;;2333573;53;21140;-79
2021/12/12 04:33:38;;;;;;;56.05;21.50;;;;;;;;;;2338581;53;21069;-80
2021/12/12 04:36:06;;;;;;;65.68;24.77;;;;;;;;;;2342097;53;21815;-79
2021/12/12 04:38:33;;;;;;;61.33;24.42;;;;;;;;;;2369143;53;21132;-80
2021/12/12 04:41:00;;;;;;;66.78;24.20;;;;;;;;;;2366121;56;21144;-80
2021/12/12 04:43:28;;;;;;;59.65;22.83;;;;;;;;;;2366242;56;21049;-80
2021/12/12 04:46:05;;;;;;;63.65;25.27;;;;;;;;;;2367200;53;21078;-80
2021/12/12 04:51:23;;;;;;;71.62;24.08;;;;;;;;;;2367374;53;20985;-80
2021/12/12 04:53:52;;;;;;;69.90;25.90;;;;;;;;;;2366420;56;21061;-79
2021/12/12 04:56:22;;;;;;;58.87;22.17;;;;;;;;;;2369143;53;21157;-78
2021/12/12 04:58:53;;;;;;;63.33;25.60;;;;;;;;;;2371404;53;21082;-79
2021/12/12 05:01:23;;;;;;;66.47;25.55;;;;;;;;;;2366567;54;21073;-79
2021/12/12 05:03:53;;;;;;;66.50;24.10;;;;;;;;;;2368385;53;21274;-80
2021/12/12 05:06:26;;;;;;;64.82;23.85;;;;;;;;;;2369697;53;21078;-80
2021/12/12 05:08:57;;;;;;;64.80;26.35;;;;;;;;;;2366468;53;21332;-80
2021/12/12 05:11:27;;;;;;;73.62;24.23;;;;;;;;;;2366428;53;21127;-80
2021/12/12 05:13:56;;;;;;;65.57;23.42;;;;;;;;;;2385874;53;22109;-79
2021/12/12 05:16:27;;;;;;;64.65;24.30;;;;;;;;;;2372210;53;21471;-79
2021/12/12 05:19:04;;;;;;;71.75;24.80;;;;;;;;;;2381074;53;21074;-79
2021/12/12 05:21:33;;;;;;;67.95;25.73;;;;;;;;;;2372660;53;21085;-80
2021/12/12 05:24:01;;;;;;;62.50;23.20;;;;;;;;;;2365734;56;21073;-79
2021/12/12 05:26:31;;;;;;;62.38;24.55;;;;;;;;;;2366351;56;21161;-80
2021/12/12 05:29:01;;;;;;;69.37;26.52;;;;;;;;;;2366042;56;21943;-79
2021/12/12 05:31:29;;;;;;;69.00;24.35;;;;;;;;;;2386906;53;21129;-79
2021/12/12 05:33:56;;;;;;;74.72;25.12;;;;;;;;;;2372759;53;21274;-79
2021/12/12 05:36:23;;;;;;;63.95;24.60;;;;;;;;;;2366047;56;22118;-80
2021/12/12 05:38:51;;;;;;;74.10;26.08;;;;;;;;;;2369005;53;21066;-79
2021/12/12 05:41:18;;;;;;;65.72;23.10;;;;;;;;;;2367474;53;21062;-79
2021/12/12 05:43:45;;;;;;;81.07;28.15;;;;;;;;;;2381163;53;21065;-80
2021/12/12 05:46:15;;;;;;;71.15;25.77;;;;;;;;;;2371359;53;21074;-80
2021/12/12 05:48:42;;;;;;;65.35;24.02;;;;;;;;;;2375652;53;21085;-80
2021/12/12 05:51:10;;;;;;;77.57;25.40;;;;;;;;;;2372542;53;21100;-80
2021/12/12 05:53:37;;;;;;;73.60;26.80;;;;;;;;;;2392227;53;21112;-80
2021/12/12 05:56:06;;;;;;;80.62;28.45;;;;;;;;;;2366486;53;21126;-80
2021/12/12 05:58:34;;;;;;;72.50;28.00;;;;;;;;;;2374489;53;21074;-81
2021/12/12 06:01:03;;;;;;;77.65;28.65;;;;;;;;;;2381618;53;21209;-80
2021/12/12 06:03:31;;;;;;;76.35;27.75;;;;;;;;;;2369047;53;21082;-79
2021/12/12 06:05:59;;;;;;;80.57;29.37;;;;;;;;;;2375204;53;21058;-79
2021/12/12 06:08:27;;;;;;;84.90;27.75;;;;;;;;;;2366256;56;21126;-80
2021/12/12 06:10:55;;;;;;;80.05;24.98;;;;;;;;;;2374876;53;21161;-80
2021/12/12 06:13:23;;;;;;;66.53;25.70;;;;;;;;;;2367624;53;21305;-80
2021/12/12 06:15:53;;;;;;;80.78;27.77;;;;;;;;;;2366419;56;21575;-80
2021/12/12 06:18:20;;;;;;;77.95;27.65;;;;;;;;;;2375220;53;21070;-79
2021/12/12 06:20:47;;;;;;;94.45;27.83;;;;;;;;;;2373728;53;21062;-80
2021/12/12 06:23:15;;;;;;;83.07;29.50;;;;;;;;;;2388123;53;21058;-81
2021/12/12 06:25:43;;;;;;;88.12;30.12;;;;;;;;;;2367678;56;21066;-80
2021/12/12 06:28:10;;;;;;;79.68;26.95;;;;;;;;;;2366190;56;21316;-80
2021/12/12 06:30:38;;;;;;;65.55;25.50;;;;;;;;;;2367377;56;21110;-81
2021/12/12 06:33:05;;;;;;;86.93;28.98;;;;;;;;;;2369601;53;21486;-80
2021/12/12 06:35:33;;;;;;;76.15;28.02;;;;;;;;;;2367628;56;21058;-80
2021/12/12 06:38:01;;;;;;;82.50;29.30;;;;;;;;;;2370488;53;21082;-81
2021/12/12 06:40:29;;;;;;;65.55;24.95;;;;;;;;;;2371215;53;21090;-79
2021/12/12 06:42:56;;;;;;;99.00;30.42;;;;;;;;;;2391578;53;21127;-81
2021/12/12 06:45:23;;;;;;;99.85;30.83;;;;;;;;;;2369183;53;21253;-80
2021/12/12 06:47:51;;;;;;;75.25;27.50;;;;;;;;;;2366351;56;21140;-81
2021/12/12 06:50:19;;;;;;;91.35;30.27;;;;;;;;;;2370504;53;21054;-80
2021/12/12 06:52:47;;;;;;;93.00;29.87;;;;;;;;;;2374799;53;21129;-80
2021/12/12 06:55:14;;;;;;;69.53;26.73;;;;;;;;;;2367248;56;21065;-79
2021/12/12 06:57:42;;;;;;;81.30;27.55;;;;;;;;;;2377209;53;21069;-80
2021/12/12 07:00:12;;;;;;;77.18;26.37;;;;;;;;;;2368444;53;21071;-80
2021/12/12 07:02:40;;;;;;;83.97;27.48;;;;;;;;;;2373424;53;21070;-80
2021/12/12 07:05:09;;;;;;;73.50;27.10;;;;;;;;;;2371747;53;21058;-79
2021/12/12 07:07:36;;;;;;;64.82;24.65;;;;;;;;;;2369547;53;21156;-80
2021/12/12 07:10:06;;;;;;;69.72;25.12;;;;;;;;;;2367326;53;21077;-80
2021/12/12 07:12:33;;;;;;;79.37;27.17;;;;;;;;;;2373267;53;21062;-79
2021/12/12 07:15:01;;;;;;;68.87;24.63;;;;;;;;;;2384925;53;21265;-80
2021/12/12 07:17:29;;;;;;;86.25;25.45;;;;;;;;;;2375445;53;21065;-80
2021/12/12 07:19:56;;;;;;;82.05;29.65;;;;;;;;;;2380099;53;21078;-80
2021/12/12 07:22:25;;;;;;;64.65;22.75;;;;;;;;;;2367466;52;21145;-80
2021/12/12 07:24:52;;;;;;;75.65;25.90;;;;;;;;;;2370440;53;21057;-78
2021/12/12 07:27:19;;;;;;;75.25;25.48;;;;;;;;;;2389338;53;21157;-80
2021/12/12 07:29:47;;;;;;;71.90;25.67;;;;;;;;;;2367453;56;21125;-81
2021/12/12 07:32:14;;;;;;;68.90;25.35;;;;;;;;;;2372202;53;21149;-80
2021/12/12 07:34:42;;;;;;;69.12;25.17;;;;;;;;;;2367503;56;21344;-82
2021/12/12 07:37:09;;;;;;;72.55;25.60;;;;;;;;;;2388601;53;21137;-83
2021/12/12 07:39:39;;;;;;;63.63;24.37;;;;;;;;;;2369253;56;21082;-81
2021/12/12 07:42:07;;;;;;;68.43;23.65;;;;;;;;;;2369731;53;21570;-82
2021/12/12 07:44:36;;;;;;;74.55;24.75;;;;;;;;;;2368132;56;21153;-81
2021/12/12 07:47:04;;;;;;;67.70;23.35;;;;;;;;;;2368000;53;21112;-82
2021/12/12 07:49:33;;;;;;;67.12;24.87;;;;;;;;;;2381837;53;21085;-80
2021/12/12 07:52:01;;;;;;;62.75;23.12;;;;;;;;;;2373095;53;21157;-82
2021/12/12 07:54:29;;;;;;;59.53;22.80;;;;;;;;;;2372888;53;21141;-82
2021/12/12 07:56:56;;;;;;;57.05;20.10;;;;;;;;;;2370684;53;21653;-84
2021/12/12 07:59:24;;;;;;;50.88;20.05;;;;;;;;;;2368327;56;21154;-83
2021/12/12 08:01:51;;;;;;;64.30;22.35;;;;;;;;;;2382603;53;21120;-83
2021/12/12 08:04:21;;;;;;;54.75;19.98;;;;;;;;;;2370470;53;21122;-84
2021/12/12 08:06:48;;;;;;;61.20;22.58;;;;;;;;;;2368868;53;21562;-83
2021/12/12 08:09:16;;;;;;;70.87;23.38;;;;;;;;;;2372669;53;21077;-81
2021/12/12 08:11:43;;;;;;;129.02;29.08;;;;;;;;;;2373199;53;21218;-85
2021/12/12 08:14:13;;;;;;;62.60;20.20;;;;;;;;;;2374857;53;21976;-86
2021/12/12 08:16:40;;;;;;;51.67;20.27;;;;;;;;;;2373016;54;21550;-86
2021/12/12 08:19:08;;;;;;;57.45;21.62;;;;;;;;;;2378946;53;21010;-83
2021/12/12 08:21:36;;;;;;;53.60;21.60;;;;;;;;;;2372539;53;21720;-86
2021/12/12 08:24:09;;;;;;;56.50;19.67;;;;;;;;;;2373324;53;21820;-87
2021/12/12 08:26:38;;;;;;;49.63;19.70;;;;;;;;;;2377153;53;21054;-87
2021/12/12 08:29:06;;;;;;;51.72;19.52;;;;;;;;;;2382691;53;21169;-83
2021/12/12 08:31:33;;;;;;;49.22;19.40;;;;;;;;;;2367435;56;21133;-80
2021/12/12 08:34:01;;;;;;;53.40;19.45;;;;;;;;;;2369965;53;21050;-79
2021/12/12 08:36:28;;;;;;;52.55;20.73;;;;;;;;;;2369201;53;21678;-79
2021/12/12 08:38:55;;;;;;;66.45;22.05;;;;;;;;;;2376495;53;21128;-80
2021/12/12 08:41:23;;;;;;;57.62;20.58;;;;;;;;;;2367807;53;21070;-80
2021/12/12 08:43:50;;;;;;;47.92;19.50;;;;;;;;;;2366672;56;21148;-79
2021/12/12 08:46:17;;;;;;;42.80;16.37;;;;;;;;;;2370668;53;21936;-82
2021/12/12 08:48:46;;;;;;;55.03;18.83;;;;;;;;;;2375326;53;21117;-80
2021/12/12 08:51:17;;;;;;;43.38;17.62;;;;;;;;;;2392218;53;21141;-80
2021/12/12 08:53:46;;;;;;;44.53;17.25;;;;;;;;;;2367272;52;21212;-80
2021/12/12 08:56:19;;;;;;;47.25;18.12;;;;;;;;;;2371986;53;21073;-87
2021/12/12 08:58:48;;;;;;;50.58;18.02;;;;;;;;;;2370796;53;21244;-86
2021/12/12 09:01:16;;;;;;;43.60;16.73;;;;;;;;;;2371028;53;21309;-85
2021/12/12 09:03:45;;;;;;;52.22;18.20;;;;;;;;;;2375857;53;21215;-84
2021/12/12 09:06:15;;;;;;;41.53;16.27;;;;;;;;;;2370526;56;21149;-87
2021/12/12 09:08:48;;;;;;;43.25;16.92;;;;;;;;;;2371305;53;21117;-85
2021/12/12 09:11:19;;;;;;;37.33;15.45;;;;;;;;;;2370257;54;21363;-78
2021/12/12 09:13:48;;;;;;;49.00;16.70;;;;;;;;;;2377684;53;21130;-86
2021/12/12 09:16:21;;;;;;;34.38;14.57;;;;;;;;;;2371206;53;21614;-83
2021/12/12 09:18:52;;;;;;;41.05;15.48;;;;;;;;;;2377771;53;21137;-84
2021/12/12 09:21:28;;;;;;;44.03;14.65;;;;;;;;;;2372786;53;21105;-87
2021/12/12 09:24:03;;;;;;;39.47;13.98;;;;;;;;;;2370118;54;21186;-86
2021/12/12 09:26:31;;;;;;;38.47;14.93;;;;;;;;;;2370446;52;21825;-83
2021/12/12 09:29:02;;;;;;;30.17;13.80;;;;;;;;;;2381460;53;21574;-86
2021/12/12 09:31:31;;;;;;;37.65;15.68;;;;;;;;;;2382381;53;21120;-83
2021/12/12 09:34:00;;;;;;;35.72;14.30;;;;;;;;;;2369942;54;21122;-82
2021/12/12 09:36:33;;;;;;;31.77;13.45;;;;;;;;;;2370746;53;21050;-83
2021/12/12 09:39:02;;;;;;;38.05;13.80;;;;;;;;;;2384213;53;21114;-84
2021/12/12 09:41:42;;;;;;;34.35;13.68;;;;;;;;;;2367827;54;21108;-85
2021/12/12 09:44:30;;;;;;;30.23;12.68;;;;;;;;;;2376328;53;21065;-84
2021/12/12 09:47:25;;;;;;;30.77;12.18;;;;;;;;;;2368145;56;21065;-83
2021/12/12 09:53:04;;;;;;;31.65;12.95;;;;;;;;;;2339583;55;21854;-85
2021/12/12 09:55:35;;;;;;;30.90;12.63;;;;;;;;;;2374617;53;21129;-82
2021/12/12 09:58:05;;;;;;;28.20;12.07;;;;;;;;;;2385391;53;21074;-82
2021/12/12 10:00:37;;;;;;;37.55;13.25;;;;;;;;;;2369221;54;21822;-84
2021/12/12 10:03:12;;;;;;;26.75;11.48;;;;;;;;;;2378335;53;21145;-86
2021/12/12 10:05:49;;;;;;;26.83;10.40;;;;;;;;;;2369610;56;21086;-86
2021/12/12 10:08:24;;;;;;;25.50;10.77;;;;;;;;;;2374093;53;21686;-83
2021/12/12 10:10:56;;;;;;;28.80;12.23;;;;;;;;;;2369772;53;21578;-82
2021/12/12 10:13:29;;;;;;;27.07;10.93;;;;;;;;;;2373385;53;21133;-84
2021/12/12 10:15:58;;;;;;;22.10;9.88;;;;;;;;;;2376008;53;21142;-83
2021/12/12 10:18:30;;;;;;;17.90;9.27;;;;;;;;;;2372646;53;21060;-83
2021/12/12 10:21:01;;;;;;;24.00;9.23;;;;;;;;;;2382340;53;21313;-85
2021/12/12 10:23:35;;;;;;;21.55;9.98;;;;;;;;;;2368185;54;21540;-86
2021/12/12 10:26:04;;;;;;;21.92;10.30;;;;;;;;;;2377304;53;67748;-77
2021/12/12 10:28:32;;;;;;;18.00;8.02;;;;;;;;;;2304669;58;21045;-77
2021/12/12 10:31:01;;;;;;;14.43;8.00;;;;;;;;;;2304661;58;21132;-77
2021/12/12 10:33:33;;;;;;;19.73;7.72;;;;;;;;;;2304362;58;21088;-77
2021/12/12 10:36:02;;;;;;;15.63;7.72;;;;;;;;;;2304081;58;21053;-77
2021/12/12 10:38:34;;;;;;;15.50;7.25;;;;;;;;;;2541889;54;21045;-77
2021/12/12 10:41:04;;;;;;;17.92;8.27;;;;;;;;;;2304459;58;21187;-77
2021/12/12 10:43:35;;;;;;;19.52;8.68;;;;;;;;;;2304290;58;21104;-77
2021/12/12 10:46:07;;;;;;;12.82;7.35;;;;;;;;;;2304958;58;21056;-78
2021/12/12 10:48:44;;;;;;;14.87;7.75;;;;;;;;;;2304839;58;21069;-77
2021/12/12 10:51:14;;;;;;;13.68;7.43;;;;;;;;;;2303568;58;21120;-79
2021/12/12 10:53:45;;;;;;;12.30;6.43;;;;;;;;;;2304329;58;21127;-77
2021/12/12 10:56:24;;;;;;;12.60;6.57;;;;;;;;;;2304464;58;21053;-78
2021/12/12 10:58:53;;;;;;;12.80;6.75;;;;;;;;;;2305333;58;21148;-77
2021/12/12 11:01:23;;;;;;;11.50;5.50;;;;;;;;;;2304231;58;21654;-78
2021/12/12 11:03:52;;;;;;;15.30;6.10;;;;;;;;;;2304486;58;21056;-77
2021/12/12 11:06:24;;;;;;;9.20;5.53;;;;;;;;;;2304516;58;21685;-79
2021/12/12 11:08:53;;;;;;;9.45;5.15;;;;;;;;;;2304743;58;21049;-77
2021/12/12 11:11:22;;;;;;;8.52;4.97;;;;;;;;;;2304291;58;21610;-77
2021/12/12 11:13:51;;;;;;;10.05;5.40;;;;;;;;;;2305053;58;21120;-77
2021/12/12 11:16:20;;;;;;;10.98;4.68;;;;;;;;;;2304357;58;21144;-77
2021/12/12 11:18:49;;;;;;;8.88;4.75;;;;;;;;;;2303917;58;21072;-77
2021/12/12 11:21:18;;;;;;;7.20;4.65;;;;;;;;;;2303720;58;21153;-76
2021/12/12 11:23:51;;;;;;;7.57;4.47;;;;;;;;;;2304652;58;21048;-77
2021/12/12 11:26:20;;;;;;;7.45;4.03;;;;;;;;;;2304146;58;21092;-77
2021/12/12 11:28:49;;;;;;;8.23;3.92;;;;;;;;;;2304308;58;21056;-78
2021/12/12 11:31:20;;;;;;;7.60;4.60;;;;;;;;;;2305086;58;21084;-77
2021/12/12 11:33:49;;;;;;;7.93;3.75;;;;;;;;;;2304687;58;22184;-77
2021/12/12 11:36:19;;;;;;;9.05;4.50;;;;;;;;;;2304708;58;21614;-77
2021/12/12 11:38:48;;;;;;;7.85;3.70;;;;;;;;;;2304088;58;21065;-77
2021/12/12 11:41:18;;;;;;;6.28;3.72;;;;;;;;;;2304613;58;21326;-77
2021/12/12 11:43:48;;;;;;;6.90;4.05;;;;;;;;;;2304065;58;21630;-77
2021/12/12 11:46:20;;;;;;;5.97;4.20;;;;;;;;;;2542384;54;21111;-77
2021/12/12 11:48:50;;;;;;;6.90;4.03;;;;;;;;;;2304229;58;21128;-78
2021/12/12 11:51:19;;;;;;;7.93;4.62;;;;;;;;;;2305220;58;21717;-78
2021/12/12 11:53:47;;;;;;;5.05;3.20;;;;;;;;;;2305002;58;21131;-80
2021/12/12 11:56:16;;;;;;;7.12;3.92;;;;;;;;;;2304851;58;21606;-77
2021/12/12 11:58:46;;;;;;;8.60;4.32;;;;;;;;;;2303095;58;21084;-77
2021/12/12 12:01:18;;;;;;;7.03;3.37;;;;;;;;;;2303885;58;21064;-78
2021/12/12 12:03:58;;;;;;;7.82;3.97;;;;;;;;;;2304386;58;21048;-77
2021/12/12 12:06:30;;;;;;;5.85;3.60;;;;;;;;;;2304894;58;21591;-77
2021/12/12 12:09:02;;;;;;;8.02;4.00;;;;;;;;;;2303547;58;21511;-77
2021/12/12 12:11:39;;;;;;;4.93;3.53;;;;;;;;;;2305119;58;21048;-77
2021/12/12 12:14:09;;;;;;;6.37;3.90;;;;;;;;;;2305214;58;21057;-77
2021/12/12 12:16:45;;;;;;;7.57;4.05;;;;;;;;;;2304257;58;22566;-78
2021/12/12 12:19:17;;;;;;;5.43;3.53;;;;;;;;;;2303673;58;21060;-77
2021/12/12 12:22:02;;;;;;;5.80;3.78;;;;;;;;;;2304741;58;21128;-77
2021/12/12 12:24:39;;;;;;;9.18;4.78;;;;;;;;;;2305337;58;21052;-77
2021/12/12 12:27:08;;;;;;;7.10;3.95;;;;;;;;;;2304489;58;21060;-77
2021/12/12 12:29:58;;;;;;;9.63;4.50;;;;;;;;;;2303960;58;21120;-78
2021/12/12 12:32:43;;;;;;;6.72;4.43;;;;;;;;;;2303887;58;21123;-77
2021/12/12 12:35:29;;;;;;;8.15;4.43;;;;;;;;;;2304223;58;21116;-77
2021/12/12 12:38:14;;;;;;;6.65;4.25;;;;;;;;;;2533912;54;21048;-80
2021/12/12 12:41:00;;;;;;;6.75;4.57;;;;;;;;;;2541920;54;21044;-78
2021/12/12 12:43:52;;;;;;;9.25;4.72;;;;;;;;;;2305155;58;21080;-77
2021/12/12 12:46:37;;;;;;;7.78;4.82;;;;;;;;;;2304742;58;21068;-79
2021/12/12 12:49:23;;;;;;;8.48;4.68;;;;;;;;;;2303783;58;21131;-77
2021/12/12 12:52:04;;;;;;;7.57;5.10;;;;;;;;;;2304091;58;21076;-79
2021/12/12 12:54:32;;;;;;;8.82;5.50;;;;;;;;;;2303596;58;21048;-77
2021/12/12 12:57:21;;;;;;;7.80;5.30;;;;;;;;;;2304099;58;21060;-77
2021/12/12 13:00:06;;;;;;;7.12;4.80;;;;;;;;;;2304300;58;21108;-77
2021/12/12 13:02:37;;;;;;;11.02;6.20;;;;;;;;;;2304813;58;21037;-78
2021/12/12 13:05:15;;;;;;;8.43;6.12;;;;;;;;;;2304487;58;21049;-78
2021/12/12 13:08:12;;;;;;;9.60;6.10;;;;;;;;;;2304362;58;21531;-77
2021/12/12 13:10:39;;;;;;;7.70;5.10;;;;;;;;;;2303821;58;21096;-77
2021/12/12 13:13:09;;;;;;;7.80;5.28;;;;;;;;;;2304972;58;21614;-77
2021/12/12 13:15:46;;;;;;;9.52;5.60;;;;;;;;;;2303791;58;21055;-77
2021/12/12 13:18:25;;;;;;;7.82;5.47;;;;;;;;;;2303890;58;21060;-77
2021/12/12 13:20:59;;;;;;;9.60;5.75;;;;;;;;;;2304029;58;21064;-77
2021/12/12 13:23:38;;;;;;;9.52;6.72;;;;;;;;;;2304356;58;21634;-77
2021/12/12 13:26:10;;;;;;;9.30;6.22;;;;;;;;;;2304498;58;21041;-77
2021/12/12 13:28:51;;;;;;;14.93;7.93;;;;;;;;;;2304827;58;21060;-77
2021/12/12 13:31:21;;;;;;;11.90;7.80;;;;;;;;;;2304348;58;21053;-77
2021/12/12 13:33:50;;;;;;;10.85;7.60;;;;;;;;;;2305540;58;21056;-79
2021/12/12 13:36:28;;;;;;;12.27;8.00;;;;;;;;;;2305048;58;21063;-79
2021/12/12 13:39:07;;;;;;;10.43;7.85;;;;;;;;;;2305133;58;21068;-79
2021/12/12 13:41:40;;;;;;;12.23;7.45;;;;;;;;;;2304797;58;21052;-77
2021/12/12 13:44:12;;;;;;;12.77;8.27;;;;;;;;;;2304284;58;21638;-77
2021/12/12 13:46:46;;;;;;;11.48;8.80;;;;;;;;;;2305131;58;21056;-77
2021/12/12 13:49:18;;;;;;;9.75;7.18;;;;;;;;;;2303599;58;21033;-77
2021/12/12 13:51:48;;;;;;;12.63;8.45;;;;;;;;;;2304552;58;21955;-77
2021/12/12 13:54:24;;;;;;;10.00;7.57;;;;;;;;;;2304549;58;21052;-77
2021/12/12 13:57:02;;;;;;;10.20;7.10;;;;;;;;;;2542577;54;21040;-77
2021/12/12 13:59:35;;;;;;;12.20;7.35;;;;;;;;;;2302594;58;21116;-78
2021/12/12 14:02:03;;;;;;;12.33;8.27;;;;;;;;;;2304542;58;21555;-77
2021/12/12 14:04:36;;;;;;;12.93;9.00;;;;;;;;;;2304588;58;21654;-79
2021/12/12 14:07:05;;;;;;;12.77;8.88;;;;;;;;;;2304728;58;21072;-78
2021/12/12 14:09:32;;;;;;;12.57;7.97;;;;;;;;;;2304266;58;21076;-77
2021/12/12 14:12:00;;;;;;;9.32;7.32;;;;;;;;;;2304632;58;21070;-77
2021/12/12 14:14:39;;;;;;;7.97;6.28;;;;;;;;;;2305491;58;21060;-78
2021/12/12 14:17:09;;;;;;;9.27;6.47;;;;;;;;;;2305227;58;21602;-77
2021/12/12 14:19:39;;;;;;;9.88;6.55;;;;;;;;;;2303466;58;21052;-78
2021/12/12 14:22:07;;;;;;;10.43;7.18;;;;;;;;;;2304194;58;21072;-78
2021/12/12 14:24:35;;;;;;;11.52;6.50;;;;;;;;;;2305043;58;21575;-77
2021/12/12 14:27:03;;;;;;;5.68;4.97;;;;;;;;;;2304725;58;21535;-78
2021/12/12 14:29:33;;;;;;;10.38;7.10;;;;;;;;;;2542270;54;21140;-77
2021/12/12 14:32:02;;;;;;;9.20;6.40;;;;;;;;;;2304079;58;21139;-77
2021/12/12 14:34:33;;;;;;;10.05;7.37;;;;;;;;;;2304293;58;21571;-78
2021/12/12 14:37:03;;;;;;;10.90;7.65;;;;;;;;;;2304764;58;21135;-78
2021/12/12 14:39:32;;;;;;;13.85;8.55;;;;;;;;;;2305472;58;21052;-78
2021/12/12 14:42:04;;;;;;;9.93;7.25;;;;;;;;;;2542725;54;21044;-79
2021/12/12 14:44:34;;;;;;;8.05;6.20;;;;;;;;;;2305633;58;21577;-79
2021/12/12 14:47:05;;;;;;;9.50;6.72;;;;;;;;;;2304957;58;21100;-78
2021/12/12 14:49:36;;;;;;;11.07;8.15;;;;;;;;;;2304514;58;21127;-78
2021/12/12 14:52:04;;;;;;;11.07;8.02;;;;;;;;;;2543363;54;21622;-79
2021/12/12 14:54:36;;;;;;;11.88;7.68;;;;;;;;;;2304879;58;21127;-78
2021/12/12 14:57:06;;;;;;;11.88;8.38;;;;;;;;;;2305294;58;21096;-78
2021/12/12 14:59:34;;;;;;;14.10;8.85;;;;;;;;;;2305177;58;21131;-82
2021/12/12 15:02:04;;;;;;;11.38;7.80;;;;;;;;;;2305145;58;21056;-78